sensor_id;sensor_type;location;lat;lon;timestamp;P1;durP1;ratioP1;P2;durP2;ratioP2
1775;SDS011;885;42.626;23.200;2023-06-01T00:00:19;10.87;;;9.80;;
1775;SDS011;885;42.626;23.200;2023-06-01T00:02:45;10.23;;;9.23;;
1775;SDS011;885;42.626;23.200;2023-06-01T00:05:12;12.40;;;11.30;;
1775;SDS011;885;42.626;23.200;2023-06-01T00:07:38;11.27;;;9.10;;
1775;SDS011;885;42.626;23.200;2023-06-01T00:10:07;11.20;;;9.40;;
1775;SDS011;885;42.626;23.200;2023-06-01T00:12:33;10.37;;;9.37;;
1775;SDS011;885;42.626;23.200;2023-06-01T00:15:00;11.83;;;9.63;;
1775;SDS011;885;42.626;23.200;2023-06-01T00:17:26;9.50;;;8.60;;
1775;SDS011;885;42.626;23.200;2023-06-01T00:19:54;9.60;;;8.60;;
1775;SDS011;885;42.626;23.200;2023-06-01T00:22:20;9.77;;;8.80;;
1775;SDS011;885;42.626;23.200;2023-06-01T00:24:49;9.90;;;8.83;;
1775;SDS011;885;42.626;23.200;2023-06-01T00:27:16;9.60;;;8.63;;
1775;SDS011;885;42.626;23.200;2023-06-01T00:29:43;9.00;;;8.20;;
1775;SDS011;885;42.626;23.200;2023-06-01T00:32:10;12.90;;;10.07;;
1775;SDS011;885;42.626;23.200;2023-06-01T00:34:36;12.20;;;9.23;;
1775;SDS011;885;42.626;23.200;2023-06-01T00:37:03;9.30;;;8.00;;
1775;SDS011;885;42.626;23.200;2023-06-01T00:39:29;10.53;;;8.83;;
1775;SDS011;885;42.626;23.200;2023-06-01T00:41:56;8.87;;;8.00;;
1775;SDS011;885;42.626;23.200;2023-06-01T00:44:24;12.20;;;9.50;;
1775;SDS011;885;42.626;23.200;2023-06-01T00:46:50;15.00;;;9.23;;
1775;SDS011;885;42.626;23.200;2023-06-01T00:49:17;10.90;;;9.00;;
1775;SDS011;885;42.626;23.200;2023-06-01T00:51:44;8.50;;;7.70;;
1775;SDS011;885;42.626;23.200;2023-06-01T00:54:10;9.60;;;7.97;;
1775;SDS011;885;42.626;23.200;2023-06-01T00:56:37;10.70;;;8.73;;
1775;SDS011;885;42.626;23.200;2023-06-01T00:59:08;10.60;;;8.50;;
1775;SDS011;885;42.626;23.200;2023-06-01T01:01:36;8.37;;;7.40;;
1775;SDS011;885;42.626;23.200;2023-06-01T01:04:03;9.03;;;8.27;;
1775;SDS011;885;42.626;23.200;2023-06-01T01:06:36;9.47;;;7.50;;
1775;SDS011;885;42.626;23.200;2023-06-01T01:09:12;9.70;;;8.30;;
1775;SDS011;885;42.626;23.200;2023-06-01T01:11:40;14.17;;;8.03;;
1775;SDS011;885;42.626;23.200;2023-06-01T01:14:08;8.83;;;8.00;;
1775;SDS011;885;42.626;23.200;2023-06-01T01:16:40;9.97;;;7.30;;
1775;SDS011;885;42.626;23.200;2023-06-01T01:19:11;10.50;;;7.93;;
1775;SDS011;885;42.626;23.200;2023-06-01T01:21:48;13.17;;;10.20;;
1775;SDS011;885;42.626;23.200;2023-06-01T01:24:23;12.93;;;9.70;;
1775;SDS011;885;42.626;23.200;2023-06-01T01:27:04;10.17;;;9.00;;
1775;SDS011;885;42.626;23.200;2023-06-01T01:29:35;11.63;;;9.87;;
1775;SDS011;885;42.626;23.200;2023-06-01T01:32:03;11.03;;;9.87;;
1775;SDS011;885;42.626;23.200;2023-06-01T01:34:30;11.00;;;10.00;;
1775;SDS011;885;42.626;23.200;2023-06-01T01:36:58;9.60;;;8.60;;
1775;SDS011;885;42.626;23.200;2023-06-01T01:39:24;9.30;;;8.40;;
1775;SDS011;885;42.626;23.200;2023-06-01T01:41:51;10.40;;;9.40;;
1775;SDS011;885;42.626;23.200;2023-06-01T01:44:17;11.00;;;9.90;;
1775;SDS011;885;42.626;23.200;2023-06-01T01:46:47;10.83;;;9.77;;
1775;SDS011;885;42.626;23.200;2023-06-01T01:49:17;20.63;;;9.30;;
1775;SDS011;885;42.626;23.200;2023-06-01T01:51:45;10.97;;;8.77;;
1775;SDS011;885;42.626;23.200;2023-06-01T01:54:15;9.70;;;8.73;;
1775;SDS011;885;42.626;23.200;2023-06-01T01:56:42;10.37;;;9.27;;
1775;SDS011;885;42.626;23.200;2023-06-01T01:59:10;16.77;;;9.63;;
1775;SDS011;885;42.626;23.200;2023-06-01T02:01:38;11.57;;;10.47;;
1775;SDS011;885;42.626;23.200;2023-06-01T02:04:08;10.73;;;8.30;;
1775;SDS011;885;42.626;23.200;2023-06-01T02:06:35;12.20;;;9.00;;
1775;SDS011;885;42.626;23.200;2023-06-01T02:09:02;11.30;;;9.37;;
1775;SDS011;885;42.626;23.200;2023-06-01T02:11:31;9.03;;;8.13;;
1775;SDS011;885;42.626;23.200;2023-06-01T02:13:58;8.57;;;7.57;;
1775;SDS011;885;42.626;23.200;2023-06-01T02:16:24;9.77;;;8.80;;
1775;SDS011;885;42.626;23.200;2023-06-01T02:18:51;11.13;;;8.87;;
1775;SDS011;885;42.626;23.200;2023-06-01T02:21:19;11.67;;;9.70;;
1775;SDS011;885;42.626;23.200;2023-06-01T02:23:47;9.70;;;8.70;;
1775;SDS011;885;42.626;23.200;2023-06-01T02:26:13;9.87;;;8.83;;
1775;SDS011;885;42.626;23.200;2023-06-01T02:28:41;8.83;;;7.93;;
1775;SDS011;885;42.626;23.200;2023-06-01T02:31:09;8.17;;;7.37;;
1775;SDS011;885;42.626;23.200;2023-06-01T02:33:36;10.60;;;7.73;;
1775;SDS011;885;42.626;23.200;2023-06-01T02:36:04;9.87;;;8.07;;
1775;SDS011;885;42.626;23.200;2023-06-01T02:38:32;9.30;;;8.00;;
1775;SDS011;885;42.626;23.200;2023-06-01T02:40:59;8.80;;;7.93;;
1775;SDS011;885;42.626;23.200;2023-06-01T02:43:25;10.80;;;7.70;;
1775;SDS011;885;42.626;23.200;2023-06-01T02:45:52;9.63;;;7.77;;
1775;SDS011;885;42.626;23.200;2023-06-01T02:48:18;9.40;;;8.00;;
1775;SDS011;885;42.626;23.200;2023-06-01T02:50:44;8.73;;;7.83;;
1775;SDS011;885;42.626;23.200;2023-06-01T02:53:11;8.90;;;8.00;;
1775;SDS011;885;42.626;23.200;2023-06-01T02:55:39;10.20;;;8.63;;
1775;SDS011;885;42.626;23.200;2023-06-01T02:58:05;10.70;;;8.23;;
1775;SDS011;885;42.626;23.200;2023-06-01T03:00:33;11.43;;;7.67;;
1775;SDS011;885;42.626;23.200;2023-06-01T03:02:59;9.80;;;8.80;;
1775;SDS011;885;42.626;23.200;2023-06-01T03:05:29;9.27;;;8.10;;
1775;SDS011;885;42.626;23.200;2023-06-01T03:07:58;9.63;;;8.60;;
1775;SDS011;885;42.626;23.200;2023-06-01T03:10:24;10.57;;;8.37;;
1775;SDS011;885;42.626;23.200;2023-06-01T03:12:52;8.80;;;7.20;;
1775;SDS011;885;42.626;23.200;2023-06-01T03:15:18;12.77;;;7.73;;
1775;SDS011;885;42.626;23.200;2023-06-01T03:17:45;12.43;;;9.17;;
1775;SDS011;885;42.626;23.200;2023-06-01T03:20:11;8.70;;;7.90;;
1775;SDS011;885;42.626;23.200;2023-06-01T03:22:40;11.07;;;8.80;;
1775;SDS011;885;42.626;23.200;2023-06-01T03:25:07;9.40;;;8.00;;
1775;SDS011;885;42.626;23.200;2023-06-01T03:27:34;9.23;;;7.70;;
1775;SDS011;885;42.626;23.200;2023-06-01T03:30:02;10.53;;;8.63;;
1775;SDS011;885;42.626;23.200;2023-06-01T03:32:29;12.20;;;9.90;;
1775;SDS011;885;42.626;23.200;2023-06-01T03:34:55;13.07;;;9.60;;
1775;SDS011;885;42.626;23.200;2023-06-01T03:37:22;11.43;;;10.30;;
1775;SDS011;885;42.626;23.200;2023-06-01T03:39:48;10.97;;;9.87;;
1775;SDS011;885;42.626;23.200;2023-06-01T03:42:15;11.73;;;9.30;;
1775;SDS011;885;42.626;23.200;2023-06-01T03:44:44;8.60;;;7.10;;
1775;SDS011;885;42.626;23.200;2023-06-01T03:47:12;10.87;;;7.97;;
1775;SDS011;885;42.626;23.200;2023-06-01T03:49:39;8.77;;;7.87;;
1775;SDS011;885;42.626;23.200;2023-06-01T03:52:06;8.20;;;7.20;;
1775;SDS011;885;42.626;23.200;2023-06-01T03:54:32;10.37;;;8.40;;
1775;SDS011;885;42.626;23.200;2023-06-01T03:56:59;11.10;;;7.80;;
1775;SDS011;885;42.626;23.200;2023-06-01T03:59:26;10.47;;;9.30;;
1775;SDS011;885;42.626;23.200;2023-06-01T04:01:53;9.30;;;7.90;;
1775;SDS011;885;42.626;23.200;2023-06-01T04:04:22;10.10;;;8.10;;
1775;SDS011;885;42.626;23.200;2023-06-01T04:06:50;7.50;;;6.80;;
1775;SDS011;885;42.626;23.200;2023-06-01T04:09:17;9.03;;;7.37;;
1775;SDS011;885;42.626;23.200;2023-06-01T04:11:43;10.53;;;9.47;;
1775;SDS011;885;42.626;23.200;2023-06-01T04:14:10;7.87;;;7.07;;
1775;SDS011;885;42.626;23.200;2023-06-01T04:16:36;9.17;;;8.27;;
1775;SDS011;885;42.626;23.200;2023-06-01T04:19:03;8.80;;;8.00;;
1775;SDS011;885;42.626;23.200;2023-06-01T04:21:31;12.37;;;8.60;;
1775;SDS011;885;42.626;23.200;2023-06-01T04:23:57;10.97;;;9.67;;
1775;SDS011;885;42.626;23.200;2023-06-01T04:26:24;12.10;;;9.90;;
1775;SDS011;885;42.626;23.200;2023-06-01T04:28:52;12.63;;;10.30;;
1775;SDS011;885;42.626;23.200;2023-06-01T04:31:21;11.37;;;10.00;;
1775;SDS011;885;42.626;23.200;2023-06-01T04:33:48;11.40;;;9.40;;
1775;SDS011;885;42.626;23.200;2023-06-01T04:36:18;11.50;;;9.70;;
1775;SDS011;885;42.626;23.200;2023-06-01T04:38:48;10.23;;;9.23;;
1775;SDS011;885;42.626;23.200;2023-06-01T04:41:18;12.10;;;9.80;;
1775;SDS011;885;42.626;23.200;2023-06-01T04:43:45;10.07;;;8.07;;
1775;SDS011;885;42.626;23.200;2023-06-01T04:46:17;9.40;;;8.50;;
1775;SDS011;885;42.626;23.200;2023-06-01T04:48:43;9.10;;;8.20;;
1775;SDS011;885;42.626;23.200;2023-06-01T04:51:10;8.60;;;7.73;;
1775;SDS011;885;42.626;23.200;2023-06-01T04:53:36;8.77;;;7.90;;
1775;SDS011;885;42.626;23.200;2023-06-01T04:56:05;7.93;;;7.13;;
1775;SDS011;885;42.626;23.200;2023-06-01T04:58:31;9.50;;;7.80;;
1775;SDS011;885;42.626;23.200;2023-06-01T05:00:58;10.87;;;8.70;;
1775;SDS011;885;42.626;23.200;2023-06-01T05:03:25;8.60;;;7.70;;
1775;SDS011;885;42.626;23.200;2023-06-01T05:05:51;9.30;;;7.27;;
1775;SDS011;885;42.626;23.200;2023-06-01T05:08:18;9.43;;;8.53;;
1775;SDS011;885;42.626;23.200;2023-06-01T05:10:44;9.47;;;8.57;;
1775;SDS011;885;42.626;23.200;2023-06-01T05:13:12;9.50;;;8.17;;
1775;SDS011;885;42.626;23.200;2023-06-01T05:15:39;13.43;;;10.27;;
1775;SDS011;885;42.626;23.200;2023-06-01T05:18:05;9.87;;;8.90;;
1775;SDS011;885;42.626;23.200;2023-06-01T05:20:31;10.77;;;9.00;;
1775;SDS011;885;42.626;23.200;2023-06-01T05:23:00;11.27;;;9.37;;
1775;SDS011;885;42.626;23.200;2023-06-01T05:25:27;10.87;;;9.00;;
1775;SDS011;885;42.626;23.200;2023-06-01T05:27:53;10.10;;;9.10;;
1775;SDS011;885;42.626;23.200;2023-06-01T05:30:21;10.70;;;8.77;;
1775;SDS011;885;42.626;23.200;2023-06-01T05:32:48;11.60;;;9.70;;
1775;SDS011;885;42.626;23.200;2023-06-01T05:35:14;11.03;;;8.67;;
1775;SDS011;885;42.626;23.200;2023-06-01T05:37:41;10.80;;;7.93;;
1775;SDS011;885;42.626;23.200;2023-06-01T05:40:07;9.30;;;8.40;;
1775;SDS011;885;42.626;23.200;2023-06-01T05:42:34;12.30;;;8.73;;
1775;SDS011;885;42.626;23.200;2023-06-01T05:45:01;12.70;;;10.20;;
1775;SDS011;885;42.626;23.200;2023-06-01T05:47:29;9.43;;;8.00;;
1775;SDS011;885;42.626;23.200;2023-06-01T05:49:55;10.90;;;9.80;;
1775;SDS011;885;42.626;23.200;2023-06-01T05:52:22;12.10;;;9.70;;
1775;SDS011;885;42.626;23.200;2023-06-01T05:54:49;9.77;;;8.83;;
1775;SDS011;885;42.626;23.200;2023-06-01T05:57:18;8.93;;;7.80;;
1775;SDS011;885;42.626;23.200;2023-06-01T05:59:45;9.40;;;7.77;;
1775;SDS011;885;42.626;23.200;2023-06-01T06:02:12;9.80;;;7.40;;
1775;SDS011;885;42.626;23.200;2023-06-01T06:04:40;10.93;;;7.60;;
1775;SDS011;885;42.626;23.200;2023-06-01T06:07:06;9.60;;;6.93;;
1775;SDS011;885;42.626;23.200;2023-06-01T06:09:33;8.80;;;6.73;;
1775;SDS011;885;42.626;23.200;2023-06-01T06:11:59;9.60;;;7.93;;
1775;SDS011;885;42.626;23.200;2023-06-01T06:14:26;11.13;;;7.53;;
1775;SDS011;885;42.626;23.200;2023-06-01T06:16:53;11.37;;;7.60;;
1775;SDS011;885;42.626;23.200;2023-06-01T06:19:20;9.67;;;6.80;;
1775;SDS011;885;42.626;23.200;2023-06-01T06:21:48;14.03;;;8.47;;
1775;SDS011;885;42.626;23.200;2023-06-01T06:24:14;9.47;;;8.57;;
1775;SDS011;885;42.626;23.200;2023-06-01T06:26:41;10.23;;;8.13;;
1775;SDS011;885;42.626;23.200;2023-06-01T06:29:07;10.47;;;7.80;;
1775;SDS011;885;42.626;23.200;2023-06-01T06:31:34;9.60;;;8.60;;
1775;SDS011;885;42.626;23.200;2023-06-01T06:34:00;11.77;;;8.37;;
1775;SDS011;885;42.626;23.200;2023-06-01T06:48:41;7.23;;;6.53;;
1775;SDS011;885;42.626;23.200;2023-06-01T06:51:07;7.43;;;6.73;;
1775;SDS011;885;42.626;23.200;2023-06-01T06:53:34;7.43;;;6.77;;
1775;SDS011;885;42.626;23.200;2023-06-01T06:56:00;7.67;;;6.87;;
1775;SDS011;885;42.626;23.200;2023-06-01T06:58:27;7.73;;;7.03;;
1775;SDS011;885;42.626;23.200;2023-06-01T07:00:53;7.87;;;7.07;;
1775;SDS011;885;42.626;23.200;2023-06-01T07:03:20;10.80;;;7.93;;
1775;SDS011;885;42.626;23.200;2023-06-01T07:05:48;9.47;;;8.57;;
1775;SDS011;885;42.626;23.200;2023-06-01T07:08:15;8.07;;;7.27;;
1775;SDS011;885;42.626;23.200;2023-06-01T07:10:41;8.77;;;7.80;;
1775;SDS011;885;42.626;23.200;2023-06-01T07:13:08;9.63;;;7.07;;
1775;SDS011;885;42.626;23.200;2023-06-01T07:15:34;11.30;;;8.00;;
1775;SDS011;885;42.626;23.200;2023-06-01T07:18:01;7.97;;;7.20;;
1775;SDS011;885;42.626;23.200;2023-06-01T07:20:27;10.43;;;8.60;;
1775;SDS011;885;42.626;23.200;2023-06-01T07:22:55;8.40;;;7.60;;
1775;SDS011;885;42.626;23.200;2023-06-01T07:25:22;8.10;;;7.30;;
1775;SDS011;885;42.626;23.200;2023-06-01T07:27:48;7.97;;;7.27;;
1775;SDS011;885;42.626;23.200;2023-06-01T07:30:15;8.30;;;7.50;;
1775;SDS011;885;42.626;23.200;2023-06-01T07:32:42;8.63;;;7.83;;
1775;SDS011;885;42.626;23.200;2023-06-01T07:35:09;8.93;;;8.03;;
1775;SDS011;885;42.626;23.200;2023-06-01T07:37:36;9.77;;;8.20;;
1775;SDS011;885;42.626;23.200;2023-06-01T07:40:04;9.90;;;8.37;;
1775;SDS011;885;42.626;23.200;2023-06-01T07:42:31;8.97;;;7.93;;
1775;SDS011;885;42.626;23.200;2023-06-01T07:44:58;9.07;;;7.90;;
1775;SDS011;885;42.626;23.200;2023-06-01T07:47:24;9.10;;;8.27;;
1775;SDS011;885;42.626;23.200;2023-06-01T07:49:51;12.60;;;8.70;;
1775;SDS011;885;42.626;23.200;2023-06-01T07:52:18;10.23;;;9.23;;
1775;SDS011;885;42.626;23.200;2023-06-01T07:54:44;10.60;;;9.40;;
1775;SDS011;885;42.626;23.200;2023-06-01T07:57:14;9.63;;;8.73;;
1775;SDS011;885;42.626;23.200;2023-06-01T07:59:40;9.67;;;8.07;;
1775;SDS011;885;42.626;23.200;2023-06-01T08:02:07;11.27;;;8.40;;
1775;SDS011;885;42.626;23.200;2023-06-01T08:04:33;10.23;;;8.27;;
1775;SDS011;885;42.626;23.200;2023-06-01T08:07:00;9.27;;;8.30;;
1775;SDS011;885;42.626;23.200;2023-06-01T08:09:28;8.40;;;7.00;;
1775;SDS011;885;42.626;23.200;2023-06-01T08:11:55;10.30;;;8.37;;
1775;SDS011;885;42.626;23.200;2023-06-01T08:14:23;9.90;;;9.00;;
1775;SDS011;885;42.626;23.200;2023-06-01T08:16:49;8.90;;;7.97;;
1775;SDS011;885;42.626;23.200;2023-06-01T08:19:17;8.63;;;7.80;;
1775;SDS011;885;42.626;23.200;2023-06-01T08:21:44;10.97;;;9.07;;
1775;SDS011;885;42.626;23.200;2023-06-01T08:24:10;10.23;;;9.13;;
1775;SDS011;885;42.626;23.200;2023-06-01T08:26:38;10.20;;;9.23;;
1775;SDS011;885;42.626;23.200;2023-06-01T08:29:04;13.33;;;11.30;;
1775;SDS011;885;42.626;23.200;2023-06-01T08:31:32;9.73;;;8.80;;
1775;SDS011;885;42.626;23.200;2023-06-01T08:33:59;12.07;;;10.93;;
1775;SDS011;885;42.626;23.200;2023-06-01T08:36:25;13.23;;;11.93;;
1775;SDS011;885;42.626;23.200;2023-06-01T08:38:53;13.67;;;10.80;;
1775;SDS011;885;42.626;23.200;2023-06-01T08:41:20;12.13;;;10.90;;
1775;SDS011;885;42.626;23.200;2023-06-01T08:43:52;11.67;;;10.63;;
1775;SDS011;885;42.626;23.200;2023-06-01T08:46:20;13.40;;;12.00;;
1775;SDS011;885;42.626;23.200;2023-06-01T08:48:48;14.47;;;13.03;;
1775;SDS011;885;42.626;23.200;2023-06-01T08:51:16;14.03;;;12.53;;
1775;SDS011;885;42.626;23.200;2023-06-01T08:53:43;12.40;;;11.20;;
1775;SDS011;885;42.626;23.200;2023-06-01T08:56:10;13.93;;;12.53;;
1775;SDS011;885;42.626;23.200;2023-06-01T08:58:38;11.77;;;9.73;;
1775;SDS011;885;42.626;23.200;2023-06-01T09:01:06;15.13;;;13.07;;
1775;SDS011;885;42.626;23.200;2023-06-01T09:03:32;11.83;;;10.73;;
1775;SDS011;885;42.626;23.200;2023-06-01T09:06:00;13.30;;;12.00;;
1775;SDS011;885;42.626;23.200;2023-06-01T09:08:28;12.43;;;11.23;;
1775;SDS011;885;42.626;23.200;2023-06-01T09:10:55;14.50;;;12.33;;
1775;SDS011;885;42.626;23.200;2023-06-01T09:16:06;13.13;;;11.83;;
1775;SDS011;885;42.626;23.200;2023-06-01T09:18:33;12.50;;;11.03;;
1775;SDS011;885;42.626;23.200;2023-06-01T09:21:10;12.67;;;11.50;;
1775;SDS011;885;42.626;23.200;2023-06-01T09:23:37;13.70;;;12.30;;
1775;SDS011;885;42.626;23.200;2023-06-01T09:26:04;12.93;;;11.60;;
1775;SDS011;885;42.626;23.200;2023-06-01T09:28:38;13.13;;;11.43;;
1775;SDS011;885;42.626;23.200;2023-06-01T09:33:59;13.20;;;11.90;;
1775;SDS011;885;42.626;23.200;2023-06-01T09:36:28;15.30;;;11.17;;
1775;SDS011;885;42.626;23.200;2023-06-01T09:38:59;10.30;;;9.40;;
1775;SDS011;885;42.626;23.200;2023-06-01T09:41:26;11.57;;;10.37;;
1775;SDS011;885;42.626;23.200;2023-06-01T09:43:56;12.20;;;10.90;;
1775;SDS011;885;42.626;23.200;2023-06-01T09:46:22;12.10;;;9.20;;
1775;SDS011;885;42.626;23.200;2023-06-01T09:48:50;11.17;;;9.90;;
1775;SDS011;885;42.626;23.200;2023-06-01T09:51:32;10.60;;;9.50;;
1775;SDS011;885;42.626;23.200;2023-06-01T09:53:58;10.97;;;9.80;;
1775;SDS011;885;42.626;23.200;2023-06-01T09:56:25;13.47;;;10.87;;
1775;SDS011;885;42.626;23.200;2023-06-01T09:58:56;9.77;;;8.77;;
1775;SDS011;885;42.626;23.200;2023-06-01T10:01:22;9.63;;;8.73;;
1775;SDS011;885;42.626;23.200;2023-06-01T10:03:49;13.53;;;9.67;;
1775;SDS011;885;42.626;23.200;2023-06-01T10:06:18;10.10;;;8.33;;
1775;SDS011;885;42.626;23.200;2023-06-01T10:08:46;9.10;;;8.20;;
1775;SDS011;885;42.626;23.200;2023-06-01T10:11:16;9.10;;;8.20;;
1775;SDS011;885;42.626;23.200;2023-06-01T10:13:42;11.33;;;10.10;;
1775;SDS011;885;42.626;23.200;2023-06-01T10:16:09;11.43;;;10.33;;
1775;SDS011;885;42.626;23.200;2023-06-01T10:18:37;11.00;;;9.90;;
1775;SDS011;885;42.626;23.200;2023-06-01T10:21:04;12.10;;;10.73;;
1775;SDS011;885;42.626;23.200;2023-06-01T10:23:32;12.10;;;11.00;;
1775;SDS011;885;42.626;23.200;2023-06-01T10:26:04;13.00;;;11.10;;
1775;SDS011;885;42.626;23.200;2023-06-01T10:28:31;14.20;;;11.13;;
1775;SDS011;885;42.626;23.200;2023-06-01T10:34:00;10.50;;;9.50;;
1775;SDS011;885;42.626;23.200;2023-06-01T10:39:23;11.50;;;10.40;;
1775;SDS011;885;42.626;23.200;2023-06-01T10:41:51;9.73;;;8.67;;
1775;SDS011;885;42.626;23.200;2023-06-01T10:47:03;12.53;;;8.03;;
1775;SDS011;885;42.626;23.200;2023-06-01T10:52:23;10.30;;;9.27;;
1775;SDS011;885;42.626;23.200;2023-06-01T10:54:50;11.57;;;10.47;;
1775;SDS011;885;42.626;23.200;2023-06-01T10:57:21;11.07;;;10.07;;
1775;SDS011;885;42.626;23.200;2023-06-01T11:02:34;14.60;;;11.03;;
1775;SDS011;885;42.626;23.200;2023-06-01T11:07:42;10.97;;;9.97;;
1775;SDS011;885;42.626;23.200;2023-06-01T11:10:09;11.23;;;10.13;;
1775;SDS011;885;42.626;23.200;2023-06-01T11:15:22;10.07;;;8.80;;
1775;SDS011;885;42.626;23.200;2023-06-01T11:17:50;9.57;;;8.73;;
1775;SDS011;885;42.626;23.200;2023-06-01T11:20:18;10.00;;;9.10;;
1775;SDS011;885;42.626;23.200;2023-06-01T11:22:45;10.67;;;9.77;;
1775;SDS011;885;42.626;23.200;2023-06-01T11:25:12;9.63;;;8.73;;
1775;SDS011;885;42.626;23.200;2023-06-01T11:27:44;10.80;;;9.70;;
1775;SDS011;885;42.626;23.200;2023-06-01T11:30:11;12.70;;;10.07;;
1775;SDS011;885;42.626;23.200;2023-06-01T11:32:39;9.20;;;8.40;;
1775;SDS011;885;42.626;23.200;2023-06-01T11:35:16;9.17;;;8.37;;
1775;SDS011;885;42.626;23.200;2023-06-01T11:37:43;8.67;;;7.90;;
1775;SDS011;885;42.626;23.200;2023-06-01T11:40:12;9.17;;;8.27;;
1775;SDS011;885;42.626;23.200;2023-06-01T11:42:39;9.90;;;8.27;;
1775;SDS011;885;42.626;23.200;2023-06-01T11:45:06;9.30;;;8.23;;
1775;SDS011;885;42.626;23.200;2023-06-01T11:47:33;9.73;;;8.73;;
1775;SDS011;885;42.626;23.200;2023-06-01T11:50:02;9.20;;;8.30;;
1775;SDS011;885;42.626;23.200;2023-06-01T11:52:29;8.63;;;7.80;;
1775;SDS011;885;42.626;23.200;2023-06-01T11:55:01;9.47;;;8.50;;
1775;SDS011;885;42.626;23.200;2023-06-01T11:57:28;8.27;;;7.47;;
1775;SDS011;885;42.626;23.200;2023-06-01T11:59:54;7.53;;;6.67;;
1775;SDS011;885;42.626;23.200;2023-06-01T12:02:21;6.90;;;5.70;;
1775;SDS011;885;42.626;23.200;2023-06-01T12:04:55;6.17;;;5.60;;
1775;SDS011;885;42.626;23.200;2023-06-01T12:07:24;6.70;;;6.10;;
1775;SDS011;885;42.626;23.200;2023-06-01T12:09:50;6.97;;;5.90;;
1775;SDS011;885;42.626;23.200;2023-06-01T12:12:19;8.50;;;7.03;;
1775;SDS011;885;42.626;23.200;2023-06-01T12:14:46;6.53;;;5.93;;
1775;SDS011;885;42.626;23.200;2023-06-01T12:17:14;6.80;;;6.20;;
1775;SDS011;885;42.626;23.200;2023-06-01T12:19:44;5.87;;;5.37;;
1775;SDS011;885;42.626;23.200;2023-06-01T12:22:11;5.70;;;5.07;;
1775;SDS011;885;42.626;23.200;2023-06-01T12:24:39;8.83;;;5.10;;
1775;SDS011;885;42.626;23.200;2023-06-01T12:27:12;6.73;;;6.00;;
1775;SDS011;885;42.626;23.200;2023-06-01T12:29:39;5.70;;;4.60;;
1775;SDS011;885;42.626;23.200;2023-06-01T12:32:07;5.10;;;4.33;;
1775;SDS011;885;42.626;23.200;2023-06-01T12:34:34;5.70;;;5.20;;
1775;SDS011;885;42.626;23.200;2023-06-01T12:37:10;4.00;;;3.57;;
1775;SDS011;885;42.626;23.200;2023-06-01T12:39:37;4.60;;;3.53;;
1775;SDS011;885;42.626;23.200;2023-06-01T12:42:07;5.27;;;3.80;;
1775;SDS011;885;42.626;23.200;2023-06-01T12:44:34;4.00;;;3.60;;
1775;SDS011;885;42.626;23.200;2023-06-01T12:47:01;4.07;;;3.60;;
1775;SDS011;885;42.626;23.200;2023-06-01T12:49:29;5.57;;;3.67;;
1775;SDS011;885;42.626;23.200;2023-06-01T12:51:55;6.80;;;4.00;;
1775;SDS011;885;42.626;23.200;2023-06-01T12:54:22;4.20;;;3.87;;
1775;SDS011;885;42.626;23.200;2023-06-01T12:56:48;4.37;;;3.33;;
1775;SDS011;885;42.626;23.200;2023-06-01T12:59:17;3.60;;;3.23;;
1775;SDS011;885;42.626;23.200;2023-06-01T13:01:43;4.00;;;3.60;;
1775;SDS011;885;42.626;23.200;2023-06-01T13:04:10;7.37;;;3.77;;
1775;SDS011;885;42.626;23.200;2023-06-01T13:06:36;3.70;;;3.40;;
1775;SDS011;885;42.626;23.200;2023-06-01T13:09:04;4.23;;;3.73;;
1775;SDS011;885;42.626;23.200;2023-06-01T13:11:31;5.77;;;4.10;;
1775;SDS011;885;42.626;23.200;2023-06-01T13:13:58;4.73;;;4.10;;
1775;SDS011;885;42.626;23.200;2023-06-01T13:16:26;3.90;;;3.60;;
1775;SDS011;885;42.626;23.200;2023-06-01T13:18:53;5.90;;;3.40;;
1775;SDS011;885;42.626;23.200;2023-06-01T13:21:19;4.70;;;3.63;;
1775;SDS011;885;42.626;23.200;2023-06-01T13:23:46;4.00;;;3.70;;
1775;SDS011;885;42.626;23.200;2023-06-01T13:26:12;4.40;;;4.00;;
1775;SDS011;885;42.626;23.200;2023-06-01T13:28:39;3.57;;;3.27;;
1775;SDS011;885;42.626;23.200;2023-06-01T13:31:06;4.17;;;3.87;;
1775;SDS011;885;42.626;23.200;2023-06-01T13:33:34;4.13;;;3.77;;
1775;SDS011;885;42.626;23.200;2023-06-01T13:36:01;3.70;;;3.33;;
1775;SDS011;885;42.626;23.200;2023-06-01T13:38:28;4.43;;;3.70;;
1775;SDS011;885;42.626;23.200;2023-06-01T13:40:56;4.87;;;3.40;;
1775;SDS011;885;42.626;23.200;2023-06-01T13:43:22;6.80;;;3.80;;
1775;SDS011;885;42.626;23.200;2023-06-01T13:45:50;4.00;;;3.43;;
1775;SDS011;885;42.626;23.200;2023-06-01T13:48:17;4.77;;;3.50;;
1775;SDS011;885;42.626;23.200;2023-06-01T13:50:44;4.00;;;3.60;;
1775;SDS011;885;42.626;23.200;2023-06-01T13:53:11;4.97;;;3.50;;
1775;SDS011;885;42.626;23.200;2023-06-01T13:55:37;11.40;;;3.83;;
1775;SDS011;885;42.626;23.200;2023-06-01T13:58:04;4.13;;;3.47;;
1775;SDS011;885;42.626;23.200;2023-06-01T14:00:31;4.17;;;3.77;;
1775;SDS011;885;42.626;23.200;2023-06-01T14:02:58;3.63;;;3.33;;
1775;SDS011;885;42.626;23.200;2023-06-01T14:05:24;5.00;;;2.70;;
1775;SDS011;885;42.626;23.200;2023-06-01T14:07:52;3.30;;;3.00;;
1775;SDS011;885;42.626;23.200;2023-06-01T14:10:18;4.40;;;3.30;;
1775;SDS011;885;42.626;23.200;2023-06-01T14:12:45;2.87;;;2.67;;
1775;SDS011;885;42.626;23.200;2023-06-01T14:15:11;2.77;;;2.57;;
1775;SDS011;885;42.626;23.200;2023-06-01T14:17:38;4.63;;;3.60;;
1775;SDS011;885;42.626;23.200;2023-06-01T14:20:05;3.43;;;3.00;;
1775;SDS011;885;42.626;23.200;2023-06-01T14:22:31;3.13;;;2.87;;
1775;SDS011;885;42.626;23.200;2023-06-01T14:24:59;3.23;;;2.80;;
1775;SDS011;885;42.626;23.200;2023-06-01T14:27:26;2.70;;;2.50;;
1775;SDS011;885;42.626;23.200;2023-06-01T14:29:52;3.70;;;2.90;;
1775;SDS011;885;42.626;23.200;2023-06-01T14:32:19;5.23;;;3.17;;
1775;SDS011;885;42.626;23.200;2023-06-01T14:34:45;3.37;;;2.90;;
1775;SDS011;885;42.626;23.200;2023-06-01T14:37:12;3.57;;;3.27;;
1775;SDS011;885;42.626;23.200;2023-06-01T14:39:39;4.17;;;3.03;;
1775;SDS011;885;42.626;23.200;2023-06-01T14:42:07;2.70;;;2.50;;
1775;SDS011;885;42.626;23.200;2023-06-01T14:44:34;3.83;;;2.90;;
1775;SDS011;885;42.626;23.200;2023-06-01T14:47:00;4.13;;;3.43;;
1775;SDS011;885;42.626;23.200;2023-06-01T14:49:27;4.30;;;3.70;;
1775;SDS011;885;42.626;23.200;2023-06-01T14:51:53;3.73;;;3.03;;
1775;SDS011;885;42.626;23.200;2023-06-01T14:54:20;4.57;;;3.20;;
1775;SDS011;885;42.626;23.200;2023-06-01T14:56:46;3.37;;;3.07;;
1775;SDS011;885;42.626;23.200;2023-06-01T14:59:14;3.40;;;3.10;;
1775;SDS011;885;42.626;23.200;2023-06-01T15:01:41;5.40;;;3.40;;
1775;SDS011;885;42.626;23.200;2023-06-01T15:04:07;3.43;;;3.13;;
1775;SDS011;885;42.626;23.200;2023-06-01T15:06:34;7.20;;;4.00;;
1775;SDS011;885;42.626;23.200;2023-06-01T15:09:01;3.60;;;3.30;;
1775;SDS011;885;42.626;23.200;2023-06-01T15:11:28;3.70;;;3.40;;
1775;SDS011;885;42.626;23.200;2023-06-01T15:13:54;4.00;;;3.60;;
1775;SDS011;885;42.626;23.200;2023-06-01T15:16:22;4.07;;;3.60;;
1775;SDS011;885;42.626;23.200;2023-06-01T15:18:50;3.80;;;3.50;;
1775;SDS011;885;42.626;23.200;2023-06-01T15:21:16;5.40;;;3.90;;
1775;SDS011;885;42.626;23.200;2023-06-01T15:23:43;3.80;;;3.03;;
1775;SDS011;885;42.626;23.200;2023-06-01T15:26:09;4.60;;;4.20;;
1775;SDS011;885;42.626;23.200;2023-06-01T15:28:36;4.73;;;4.33;;
1775;SDS011;885;42.626;23.200;2023-06-01T15:31:02;5.00;;;4.23;;
1775;SDS011;885;42.626;23.200;2023-06-01T15:33:30;4.97;;;4.00;;
1775;SDS011;885;42.626;23.200;2023-06-01T15:35:57;5.40;;;4.80;;
1775;SDS011;885;42.626;23.200;2023-06-01T15:38:23;5.90;;;4.70;;
1775;SDS011;885;42.626;23.200;2023-06-01T15:40:50;4.10;;;3.70;;
1775;SDS011;885;42.626;23.200;2023-06-01T15:43:16;5.10;;;4.70;;
1775;SDS011;885;42.626;23.200;2023-06-01T15:45:43;7.60;;;5.13;;